Time;durP1;ratioP1;P1;durP2;ratioP2;P2;SDS_P1;SDS_P2;PMS_P1;PMS_P2;Temp;Humidity;BMP_temperature;BMP_pressure;BME280_temperature;BME280_humidity;BME280_pressure;Samples;Min_cycle;Max_cycle;Signal;HPM_P1;HPM_P2
2022/09/09 00:00:15;;;;;;;1.70;1.60;;;;;;;13.81;100.00;100650.53;1255821;23;20631;-76
2022/09/09 00:00:54;;;;;;;2.50;1.40;;;;;;;13.78;100.00;100652.88;1254857;23;20254;-76
2022/09/09 00:01:33;;;;;;;3.35;1.75;;;;;;;13.79;100.00;100660.69;1246669;23;20393;-76
2022/09/09 00:02:19;;;;;;;2.80;1.73;;;;;;;13.79;100.00;100660.69;1252367;23;20599;-76
2022/09/09 00:02:55;;;;;;;3.28;1.63;;;;;;;13.80;100.00;100656.94;1255286;23;20263;-76
2022/09/09 00:03:27;;;;;;;2.08;1.40;;;;;;;13.83;100.00;100653.78;1261313;23;20341;-77
2022/09/09 00:04:04;;;;;;;6.80;1.67;;;;;;;13.85;100.00;100651.69;1255568;23;20258;-77
2022/09/09 00:04:37;;;;;;;2.45;1.63;;;;;;;13.80;100.00;100651.59;1252185;23;20263;-76
2022/09/09 00:05:27;;;;;;;6.55;1.95;;;;;;;13.82;100.00;100652.16;1255354;23;20251;-76
2022/09/09 00:06:09;;;;;;;4.53;1.58;;;;;;;13.88;100.00;100648.50;1254695;23;20266;-76
2022/09/09 00:07:08;;;;;;;3.05;1.70;;;;;;;13.88;100.00;100653.88;1253293;23;20286;-77
2022/09/09 00:07:48;;;;;;;3.47;1.58;;;;;;;13.78;100.00;100659.06;1247200;23;20392;-76
2022/09/09 00:08:22;;;;;;;4.75;1.92;;;;;;;13.80;100.00;100656.94;1262593;23;20639;-76
2022/09/09 00:09:15;;;;;;;5.97;1.52;;;;;;;13.76;100.00;100660.34;1261458;23;20014;-76
2022/09/09 00:09:50;;;;;;;2.63;1.52;;;;;;;13.78;100.00;100664.41;1267126;23;20257;-76
2022/09/09 00:10:33;;;;;;;6.55;2.08;;;;;;;13.75;100.00;100662.22;1255288;23;20645;-76
2022/09/09 00:11:05;;;;;;;2.28;1.27;;;;;;;13.69;100.00;100655.13;1261245;23;20587;-76
2022/09/09 00:12:11;;;;;;;2.13;1.92;;;;;;;13.71;100.00;100652.25;1252581;23;20267;-76
2022/09/09 00:13:15;;;;;;;1.40;1.30;;;;;;;13.68;100.00;100658.88;1251297;23;20293;-76
2022/09/09 00:13:52;;;;;;;4.32;1.65;;;;;;;13.75;100.00;100658.72;1260968;23;20254;-76
2022/09/09 00:14:50;;;;;;;1.67;1.58;;;;;;;13.72;100.00;100660.03;1253434;23;20313;-76
2022/09/09 00:15:56;;;;;;;1.80;1.40;;;;;;;13.65;100.00;100658.53;1256295;23;20254;-76
2022/09/09 00:16:32;;;;;;;2.15;1.83;;;;;;;13.59;100.00;100657.63;1267525;23;20368;-76
2022/09/09 00:17:12;;;;;;;3.83;1.70;;;;;;;13.55;100.00;100654.63;1261368;23;20261;-76
2022/09/09 00:17:55;;;;;;;4.35;2.28;;;;;;;13.55;100.00;100665.34;1255344;23;20660;-76
2022/09/09 00:18:45;;;;;;;1.77;1.50;;;;;;;13.47;100.00;100654.22;1249060;23;20023;-76
2022/09/09 00:19:25;;;;;;;3.85;2.25;;;;;;;13.46;100.00;100658.75;1261970;23;20247;-76
2022/09/09 00:20:05;;;;;;;2.50;1.50;;;;;;;13.46;100.00;100661.44;1267008;23;20089;-76
2022/09/09 00:20:46;;;;;;;2.50;1.27;;;;;;;13.43;100.00;100663.78;1267505;23;20010;-76
2022/09/09 00:21:18;;;;;;;3.17;1.60;;;;;;;13.41;100.00;100661.31;1261303;23;20488;-76
2022/09/09 00:22:01;;;;;;;2.63;1.63;;;;;;;13.40;100.00;100661.56;1255599;23;20447;-76
2022/09/09 00:22:32;;;;;;;2.13;1.80;;;;;;;13.40;100.00;100656.19;1254946;23;20266;-76
2022/09/09 00:23:10;;;;;;;4.25;1.75;;;;;;;13.38;100.00;100655.63;1255540;23;20259;-76
2022/09/09 00:24:04;;;;;;;3.10;1.40;;;;;;;13.35;100.00;100648.09;1252847;23;20333;-76
2022/09/09 00:24:45;;;;;;;4.25;2.17;;;;;;;13.38;100.00;100651.09;1255363;23;20362;-76
2022/09/09 00:25:37;;;;;;;;;;;;;;;13.33;100.00;100658.22;1256838;23;20656;-76
2022/09/09 00:26:36;;;;;;;2.38;1.58;;;;;;;13.28;100.00;100654.41;1261871;23;19917;-76
2022/09/09 00:27:15;;;;;;;7.72;1.98;;;;;;;13.34;100.00;100651.81;1249144;23;20419;-76
2022/09/09 00:27:48;;;;;;;4.18;1.60;;;;;;;13.29;100.00;100650.69;1255408;23;20266;-76
2022/09/09 00:28:23;;;;;;;2.67;2.42;;;;;;;13.29;100.00;100650.69;1247258;23;20272;-76
2022/09/09 00:29:05;;;;;;;2.80;1.83;;;;;;;13.27;100.00;100655.44;1244387;23;20304;-76
2022/09/09 00:29:47;;;;;;;6.25;1.63;;;;;;;13.30;100.00;100652.28;1259290;23;20258;-76
2022/09/09 00:30:32;;;;;;;4.80;2.00;;;;;;;13.28;100.00;100650.91;1255345;23;20253;-76
2022/09/09 00:31:16;;;;;;;1.95;1.75;;;;;;;13.27;100.00;100646.63;1258988;23;20282;-76
2022/09/09 00:31:47;;;;;;;4.50;2.58;;;;;;;13.24;100.00;100650.59;1246981;23;21046;-76
2022/09/09 00:32:20;;;;;;;2.35;1.95;;;;;;;13.25;100.00;100646.84;1254727;23;20255;-76
2022/09/09 00:32:59;;;;;;;2.20;2.00;;;;;;;13.23;100.00;100642.78;1264043;23;20314;-76
2022/09/09 00:33:31;;;;;;;1.77;1.67;;;;;;;13.18;100.00;100643.50;1262993;23;20261;-76
2022/09/09 00:34:12;;;;;;;2.88;1.70;;;;;;;13.15;100.00;100643.97;1261385;23;20281;-76
2022/09/09 00:34:50;;;;;;;3.28;1.90;;;;;;;13.14;100.00;100644.97;1251155;23;20263;-76
2022/09/09 00:35:25;;;;;;;3.60;1.85;;;;;;;13.15;100.00;100643.97;1245189;23;20272;-76
2022/09/09 00:35:58;;;;;;;19.02;2.20;;;;;;;13.10;100.00;100641.16;1248139;23;20259;-76
2022/09/09 00:36:31;;;;;;;9.75;2.20;;;;;;;13.13;100.00;100643.34;1252510;23;20256;-76
2022/09/09 00:37:02;;;;;;;3.88;2.00;;;;;;;13.12;100.00;100633.72;1244934;23;20359;-76
2022/09/09 00:37:35;;;;;;;12.10;2.20;;;;;;;13.07;100.00;100649.66;1250966;23;20255;-76
2022/09/09 00:38:14;;;;;;;2.88;1.65;;;;;;;13.03;100.00;100640.50;1254865;23;20592;-76
2022/09/09 00:39:00;;;;;;;1.48;1.38;;;;;;;13.03;100.00;100648.50;1249699;23;20272;-76
2022/09/09 00:39:35;;;;;;;2.65;1.77;;;;;;;13.00;100.00;100638.31;1249087;23;20443;-77
2022/09/09 00:40:27;;;;;;;4.50;4.13;;;;;;;12.98;100.00;100643.06;1255139;23;20541;-76
2022/09/09 00:41:05;;;;;;;2.67;1.88;;;;;;;12.98;100.00;100643.06;1261119;23;20610;-76
2022/09/09 00:42:10;;;;;;;2.45;1.63;;;;;;;13.06;100.00;100631.19;1261337;23;20261;-77
2022/09/09 00:42:43;;;;;;;2.03;1.85;;;;;;;13.02;100.00;100636.19;1261090;23;20571;-77
2022/09/09 00:43:35;;;;;;;2.88;2.05;;;;;;;13.04;100.00;100633.28;1254600;23;20275;-76
2022/09/09 00:44:25;;;;;;;2.22;1.65;;;;;;;13.05;100.00;100634.91;1255130;23;20729;-76
2022/09/09 00:45:28;;;;;;;2.75;2.10;;;;;;;13.02;100.00;100628.19;1251069;23;20279;-76
2022/09/09 00:46:25;;;;;;;3.08;2.45;;;;;;;12.98;100.00;100632.38;1228160;24;20284;-76
2022/09/09 00:47:27;;;;;;;3.67;1.98;;;;;;;12.95;100.00;100633.66;1259803;23;20326;-76
2022/09/09 00:48:01;;;;;;;7.13;1.80;;;;;;;12.84;100.00;100631.00;1260370;23;20278;-76
2022/09/09 00:48:37;;;;;;;1.95;1.70;;;;;;;12.86;100.00;100634.25;1255539;23;20255;-76
2022/09/09 00:49:29;;;;;;;1.60;1.50;;;;;;;12.85;100.00;100622.75;1255146;23;20465;-76
2022/09/09 00:50:13;;;;;;;2.85;2.05;;;;;;;12.82;100.00;100625.91;1247201;23;20279;-76
2022/09/09 00:50:55;;;;;;;4.00;1.92;;;;;;;12.84;100.00;100626.47;1255631;23;20376;-76
2022/09/09 00:51:46;;;;;;;2.95;1.45;;;;;;;12.85;100.00;100630.75;1249899;23;20274;-76
2022/09/09 00:52:22;;;;;;;6.72;2.20;;;;;;;12.86;100.00;100632.38;1253902;23;20270;-76
2022/09/09 00:53:15;;;;;;;3.45;1.98;;;;;;;12.90;100.00;100638.09;1255598;23;20251;-76
2022/09/09 00:54:05;;;;;;;4.38;2.00;;;;;;;12.87;100.00;100639.38;1253687;23;20275;-76
2022/09/09 00:54:36;;;;;;;2.47;2.28;;;;;;;12.89;100.00;100641.81;1251913;23;20256;-76
2022/09/09 00:55:20;;;;;;;3.47;1.83;;;;;;;12.93;100.00;100637.63;1255712;23;20325;-76
2022/09/09 00:56:00;;;;;;;5.50;1.88;;;;;;;12.84;100.00;100642.50;1255490;23;20314;-76
2022/09/09 00:56:41;;;;;;;3.58;1.65;;;;;;;12.83;100.00;100635.53;1253851;23;20622;-76
2022/09/09 00:57:31;;;;;;;2.20;1.67;;;;;;;12.91;100.00;100637.06;1259401;23;20282;-76
2022/09/09 00:58:02;;;;;;;3.35;1.98;;;;;;;12.88;100.00;100638.34;1259225;23;20270;-76
2022/09/09 00:58:34;;;;;;;7.28;2.33;;;;;;;12.88;100.00;100634.84;1261681;23;20254;-76
2022/09/09 00:59:21;;;;;;;3.97;2.30;;;;;;;12.84;100.00;100636.34;1243696;23;20272;-75
2022/09/09 01:00:20;;;;;;;3.53;2.90;;;;;;;12.82;100.00;100631.25;1241534;23;20279;-76
2022/09/09 01:00:53;;;;;;;2.53;2.13;;;;;;;12.83;100.00;100629.38;1261318;23;20255;-76
2022/09/09 01:01:24;;;;;;;7.25;3.47;;;;;;;12.79;100.00;100629.03;1261813;23;20255;-76
2022/09/09 01:01:58;;;;;;;4.38;3.03;;;;;;;12.76;100.00;100637.53;1266312;23;20260;-76
2022/09/09 01:02:34;;;;;;;4.95;3.03;;;;;;;12.80;100.00;100629.84;1255482;23;20326;-76
2022/09/09 01:03:31;;;;;;;6.25;2.53;;;;;;;12.74;100.00;100625.47;1257388;23;20259;-76
2022/09/09 01:04:05;;;;;;;5.25;2.42;;;;;;;12.67;100.00;100628.25;1256028;23;20251;-76
2022/09/09 01:04:37;;;;;;;3.60;2.92;;;;;;;12.65;100.00;100623.16;1255222;23;20259;-76
2022/09/09 01:05:33;;;;;;;3.25;2.58;;;;;;;12.62;100.00;100628.97;1255900;23;20255;-76
2022/09/09 01:06:29;;;;;;;2.55;2.20;;;;;;;12.62;100.00;100623.63;1255490;23;20718;-76
2022/09/09 01:07:18;;;;;;;3.92;2.65;;;;;;;12.63;100.00;100625.25;1259989;23;20288;-76
2022/09/09 01:07:50;;;;;;;5.32;3.00;;;;;;;12.63;100.00;100619.91;1255515;23;20255;-76
2022/09/09 01:09:10;;;;;;;4.30;2.58;;;;;;;12.66;100.00;100627.47;1255593;23;20255;-76
2022/09/09 01:10:01;;;;;;;2.88;2.20;;;;;;;12.72;100.00;100628.38;1269759;23;20271;-76
2022/09/09 01:10:53;;;;;;;2.13;1.92;;;;;;;12.74;100.00;100622.78;1259777;23;20270;-76
2022/09/09 01:11:47;;;;;;;2.55;2.35;;;;;;;12.72;100.00;100622.22;1250793;23;20102;-76
2022/09/09 01:12:38;;;;;;;4.60;2.97;;;;;;;12.75;100.00;100627.09;1253397;23;20318;-76
2022/09/09 01:13:36;;;;;;;6.63;2.38;;;;;;;12.74;100.00;100628.94;1252883;23;20279;-76
2022/09/09 01:14:39;;;;;;;4.55;2.65;;;;;;;12.76;100.00;100623.34;1246644;23;20287;-76
2022/09/09 01:15:24;;;;;;;4.05;3.65;;;;;;;12.75;100.00;100617.19;1255290;23;20283;-76
2022/09/09 01:15:59;;;;;;;3.88;2.65;;;;;;;12.77;100.00;100614.28;1256240;23;20505;-76
2022/09/09 01:16:34;;;;;;;6.13;3.03;;;;;;;12.79;100.00;100617.53;1253121;23;20270;-76
2022/09/09 01:17:20;;;;;;;4.63;3.60;;;;;;;12.82;100.00;100614.41;1248023;23;20634;-76
2022/09/09 01:18:07;;;;;;;3.50;3.15;;;;;;;12.83;100.00;100616.00;1247582;23;20600;-75
2022/09/09 01:18:44;;;;;;;2.85;2.63;;;;;;;12.84;100.00;100615.78;1243278;23;20278;-75
2022/09/09 01:19:27;;;;;;;7.50;3.03;;;;;;;12.85;100.00;100612.06;1249663;23;20011;-76
2022/09/09 01:20:06;;;;;;;5.93;2.80;;;;;;;12.87;100.00;100614.50;1247599;23;20334;-76
2022/09/09 01:21:00;;;;;;;11.23;3.42;;;;;;;12.87;100.00;100604.59;1258820;23;20356;-76
2022/09/09 01:21:44;;;;;;;2.83;2.55;;;;;;;12.92;100.00;100606.59;1261199;23;20731;-76
2022/09/09 01:22:26;;;;;;;3.15;2.95;;;;;;;12.92;100.00;100609.28;1253402;23;20765;-76
2022/09/09 01:23:28;;;;;;;6.40;2.58;;;;;;;12.95;100.00;100606.13;1253470;23;20411;-76
2022/09/09 01:24:39;;;;;;;3.47;2.65;;;;;;;13.03;100.00;100604.94;1235502;23;20609;-76
2022/09/09 01:25:25;;;;;;;4.25;3.38;;;;;;;13.05;100.00;100608.97;1247503;23;20526;-76
2022/09/09 01:26:38;;;;;;;3.40;3.10;;;;;;;13.05;100.00;100608.16;1247505;23;20290;-76
2022/09/09 01:27:17;;;;;;;6.82;4.68;;;;;;;13.12;100.00;100604.28;1253436;23;20550;-76
2022/09/09 01:27:51;;;;;;;4.22;3.33;;;;;;;13.10;100.00;100605.59;1247430;23;20275;-76
2022/09/09 01:28:26;;;;;;;4.65;2.97;;;;;;;13.12;100.00;100604.28;1247605;23;20267;-76
2022/09/09 01:29:13;;;;;;;6.25;3.83;;;;;;;13.11;100.00;100605.34;1250694;23;20406;-76
2022/09/09 01:29:46;;;;;;;;;;;;;;;13.16;100.00;100605.47;1258881;23;20606;-76
2022/09/09 01:30:18;;;;;;;4.72;3.83;;;;;;;13.17;100.00;100607.13;1254872;23;20262;-76
2022/09/09 01:30:50;;;;;;;3.78;3.20;;;;;;;13.12;100.00;100606.97;1249815;23;20938;-76
2022/09/09 01:31:32;;;;;;;3.53;3.22;;;;;;;13.20;100.00;100598.63;1259592;23;20739;-76
2022/09/09 01:32:40;;;;;;;6.15;3.42;;;;;;;13.16;100.00;100602.78;1253122;23;20275;-76
2022/09/09 01:33:14;;;;;;;14.43;3.22;;;;;;;13.15;100.00;100606.53;1244197;23;20350;-76
2022/09/09 01:33:46;;;;;;;4.75;3.65;;;;;;;13.08;100.00;100605.81;1251989;23;20268;-76
2022/09/09 01:34:19;;;;;;;3.42;3.13;;;;;;;13.12;100.00;100601.63;1258827;23;20357;-76
2022/09/09 01:34:51;;;;;;;5.18;2.97;;;;;;;13.12;100.00;100601.63;1256257;23;20759;-76
2022/09/09 01:35:26;;;;;;;3.90;3.38;;;;;;;13.07;100.00;100604.22;1252661;23;20299;-76
2022/09/09 01:36:01;;;;;;;3.95;3.40;;;;;;;13.08;100.00;100600.47;1241557;23;20283;-76
2022/09/09 01:36:43;;;;;;;15.02;3.40;;;;;;;13.03;100.00;100605.72;1247861;23;20271;-75
2022/09/09 01:37:15;;;;;;;7.57;3.47;;;;;;;13.05;100.00;100610.84;1247324;23;20019;-76
2022/09/09 01:37:47;;;;;;;3.28;3.05;;;;;;;13.05;100.00;100611.66;1253431;23;20266;-76
2022/09/09 01:38:18;;;;;;;5.28;3.05;;;;;;;13.05;100.00;100610.84;1253307;23;20608;-76
2022/09/09 01:38:52;;;;;;;4.00;3.60;;;;;;;13.02;100.00;100614.00;1254267;23;20581;-76
2022/09/09 01:39:25;;;;;;;18.10;4.43;;;;;;;12.99;100.00;100608.06;1258081;23;20341;-76
2022/09/09 01:40:07;;;;;;;2.92;2.72;;;;;;;12.99;100.00;100607.25;1247743;23;20283;-76
2022/09/09 01:40:40;;;;;;;6.38;3.30;;;;;;;12.97;100.00;100604.03;1250492;23;20274;-76
2022/09/09 01:41:12;;;;;;;7.50;3.45;;;;;;;12.96;100.00;100608.56;1259347;23;20297;-76
2022/09/09 01:41:51;;;;;;;3.70;2.72;;;;;;;12.95;100.00;100606.13;1247608;23;20286;-75
2022/09/09 01:42:23;;;;;;;12.15;2.25;;;;;;;12.91;100.00;100608.47;1251313;23;20322;-76
2022/09/09 01:42:56;;;;;;;3.85;3.30;;;;;;;12.89;100.00;100607.06;1253333;23;20684;-75
2022/09/09 01:43:28;;;;;;;8.98;3.67;;;;;;;12.93;100.00;100610.91;1256560;23;20271;-76
2022/09/09 01:44:00;;;;;;;3.75;3.42;;;;;;;12.91;100.00;100613.81;1261501;23;20353;-76
2022/09/09 01:44:34;;;;;;;5.60;3.60;;;;;;;12.90;100.00;100622.06;1262942;23;20258;-76
2022/09/09 01:45:06;;;;;;;33.30;4.82;;;;;;;12.88;100.00;100613.47;1264195;23;20288;-76
2022/09/09 01:45:39;;;;;;;5.20;3.25;;;;;;;12.87;100.00;100614.50;1252038;23;20727;-76
2022/09/09 01:46:12;;;;;;;8.00;3.40;;;;;;;12.80;100.00;100608.47;1248983;23;20343;-76
2022/09/09 01:46:44;;;;;;;5.22;3.42;;;;;;;12.83;100.00;100608.00;1242783;23;20661;-76
2022/09/09 01:47:20;;;;;;;3.53;3.22;;;;;;;12.84;100.00;100615.78;1251288;23;20272;-76
2022/09/09 01:48:06;;;;;;;5.90;3.22;;;;;;;12.78;100.00;100615.91;1252217;23;20270;-76
2022/09/09 01:48:51;;;;;;;3.58;3.10;;;;;;;12.75;100.00;100609.19;1253384;23;20271;-76
2022/09/09 01:49:23;;;;;;;4.45;3.60;;;;;;;12.74;100.00;100609.41;1247535;23;20277;-76
2022/09/09 01:49:54;;;;;;;5.30;3.55;;;;;;;12.74;100.00;100612.09;1258405;23;20754;-76
2022/09/09 01:50:29;;;;;;;5.00;3.80;;;;;;;12.73;100.00;100611.28;1254976;23;20274;-76
2022/09/09 01:51:02;;;;;;;4.40;4.10;;;;;;;12.71;100.00;100609.91;1261192;23;20599;-76
2022/09/09 01:51:35;;;;;;;6.63;3.03;;;;;;;12.71;100.00;100609.91;1247475;23;20271;-76
2022/09/09 01:52:25;;;;;;;6.07;3.15;;;;;;;12.68;100.00;100617.34;1252312;23;20306;-76
2022/09/09 01:52:59;;;;;;;6.18;3.33;;;;;;;12.66;100.00;100611.41;1249772;23;20011;-76
2022/09/09 01:53:34;;;;;;;3.83;3.53;;;;;;;12.66;100.00;100614.09;1247313;23;20272;-76
2022/09/09 01:54:06;;;;;;;4.20;3.72;;;;;;;12.62;100.00;100618.28;1254891;23;20247;-76
2022/09/09 01:54:38;;;;;;;4.07;3.67;;;;;;;12.65;100.00;100615.16;1251827;23;20641;-76
2022/09/09 01:55:15;;;;;;;4.78;2.83;;;;;;;12.61;100.00;100616.66;1249236;23;20272;-76
2022/09/09 01:56:32;;;;;;;3.25;2.95;;;;;;;12.57;100.00;100610.13;1259680;23;20266;-75
2022/09/09 01:57:22;;;;;;;7.47;2.83;;;;;;;12.53;100.00;100613.53;1252219;23;20280;-75
2022/09/09 01:58:04;;;;;;;7.43;3.80;;;;;;;12.51;100.00;100615.63;1252903;23;20643;-76
2022/09/09 01:58:51;;;;;;;9.88;3.90;;;;;;;12.48;100.00;100616.91;1241900;23;20444;-76
2022/09/09 01:59:41;;;;;;;3.50;3.20;;;;;;;12.49;100.00;100612.38;1241725;23;20275;-75
2022/09/09 02:00:14;;;;;;;3.72;3.42;;;;;;;12.48;100.00;100611.56;1249288;23;20267;-76
2022/09/09 02:01:00;;;;;;;3.17;2.97;;;;;;;12.45;100.00;100612.03;1253480;23;20261;-76
2022/09/09 02:01:52;;;;;;;5.15;4.47;;;;;;;12.41;100.00;100610.88;1247481;23;20272;-76
2022/09/09 02:02:35;;;;;;;4.70;3.80;;;;;;;12.36;100.00;100616.09;1248575;23;20645;-75
2022/09/09 02:03:25;;;;;;;3.50;3.20;;;;;;;12.34;100.00;100616.34;1249588;23;20272;-76
2022/09/09 02:04:09;;;;;;;5.10;3.53;;;;;;;12.34;100.00;100610.19;1260418;23;20021;-76
2022/09/09 02:04:54;;;;;;;6.57;3.72;;;;;;;12.31;100.00;100613.28;1265336;23;20273;-75
2022/09/09 02:05:37;;;;;;;4.78;4.35;;;;;;;12.33;100.00;100608.56;1259129;23;20270;-75
2022/09/09 02:06:31;;;;;;;3.97;3.20;;;;;;;12.31;100.00;100608.78;1241676;23;20708;-76
2022/09/09 02:07:22;;;;;;;4.30;3.90;;;;;;;12.34;100.00;100615.53;1246167;23;20366;-76
2022/09/09 02:08:09;;;;;;;5.10;4.57;;;;;;;12.33;100.00;100608.56;1255638;23;20314;-76
2022/09/09 02:08:59;;;;;;;4.45;3.78;;;;;;;12.28;100.00;100616.44;1245503;23;20291;-76
2022/09/09 02:09:31;;;;;;;5.28;3.22;;;;;;;12.29;100.00;100615.38;1241576;23;20273;-76
2022/09/09 02:10:14;;;;;;;4.20;3.38;;;;;;;12.22;100.00;100617.38;1241627;23;20497;-76
2022/09/09 02:11:00;;;;;;;5.65;4.10;;;;;;;12.23;100.00;100613.66;1246945;23;20312;-76
2022/09/09 02:11:42;;;;;;;11.32;3.20;;;;;;;12.26;100.00;100618.53;1249678;23;20340;-75
2022/09/09 02:12:24;;;;;;;4.18;3.38;;;;;;;12.24;100.00;100623.28;1254374;23;20362;-76
2022/09/09 02:13:08;;;;;;;3.65;3.33;;;;;;;12.24;100.00;100626.78;1247298;23;20268;-76
2022/09/09 02:13:45;;;;;;;3.70;3.40;;;;;;;12.22;100.00;100622.72;1253158;23;20270;-76
2022/09/09 02:14:25;;;;;;;3.17;2.85;;;;;;;12.21;100.00;100618.41;1253453;23;20033;-76
2022/09/09 02:15:03;;;;;;;4.32;2.55;;;;;;;12.22;100.00;100617.38;1247468;23;20267;-76
2022/09/09 02:15:49;;;;;;;5.75;3.47;;;;;;;12.16;100.00;100623.66;1241321;23;20636;-76
2022/09/09 02:16:24;;;;;;;7.03;3.40;;;;;;;12.15;100.00;100619.34;1247220;23;20268;-76
2022/09/09 02:17:01;;;;;;;6.38;4.18;;;;;;;12.18;100.00;100616.22;1247410;23;20294;-76
2022/09/09 02:17:44;;;;;;;4.18;3.13;;;;;;;12.20;100.00;100620.28;1253152;23;20644;-75
2022/09/09 02:18:24;;;;;;;4.05;3.58;;;;;;;12.24;100.00;100620.63;1235635;24;21105;-75
2022/09/09 02:19:04;;;;;;;3.72;3.45;;;;;;;12.23;100.00;100621.66;1241121;23;20412;-76
2022/09/09 02:19:58;;;;;;;4.47;2.80;;;;;;;12.13;100.00;100616.09;1253352;23;20271;-75
2022/09/09 02:20:44;;;;;;;4.60;3.30;;;;;;;12.12;100.00;100614.47;1253136;23;20283;-76
2022/09/09 02:21:17;;;;;;;4.63;2.95;;;;;;;12.17;100.00;100617.25;1261509;23;20250;-76
2022/09/09 02:21:49;;;;;;;7.10;3.15;;;;;;;12.10;100.00;100612.03;1259879;23;20298;-75
2022/09/09 02:22:22;;;;;;;8.68;3.50;;;;;;;12.06;100.00;100614.38;1256411;23;20300;-76
2022/09/09 02:22:55;;;;;;;3.47;3.17;;;;;;;12.12;100.00;100617.97;1241521;23;20280;-75
2022/09/09 02:23:29;;;;;;;5.10;3.17;;;;;;;12.07;100.00;100621.34;1253681;23;20299;-76
2022/09/09 02:24:04;;;;;;;3.83;3.42;;;;;;;12.05;100.00;100612.75;1265399;23;20703;-75
2022/09/09 02:24:40;;;;;;;4.40;3.33;;;;;;;12.10;100.00;100614.72;1247497;23;20319;-76
2022/09/09 02:25:20;;;;;;;4.30;3.47;;;;;;;12.11;100.00;100607.50;1247671;23;20724;-76
2022/09/09 02:25:53;;;;;;;4.78;3.42;;;;;;;12.09;100.00;100613.09;1246572;23;20659;-75
2022/09/09 02:26:27;;;;;;;4.15;3.42;;;;;;;12.06;100.00;100619.72;1259353;23;20270;-75
2022/09/09 02:27:08;;;;;;;9.50;4.82;;;;;;;12.06;100.00;100618.91;1252645;23;20334;-76
2022/09/09 02:27:43;;;;;;;4.35;3.95;;;;;;;12.06;100.00;100614.38;1259326;23;20317;-76
2022/09/09 02:28:15;;;;;;;4.15;3.75;;;;;;;12.08;100.00;100619.47;1258881;23;20270;-76
2022/09/09 02:28:50;;;;;;;8.70;4.28;;;;;;;12.07;100.00;100612.50;1259580;23;20250;-75
2022/09/09 02:29:28;;;;;;;7.60;3.88;;;;;;;12.07;100.00;100621.34;1243453;23;20268;-76
2022/09/09 02:30:03;;;;;;;3.55;3.08;;;;;;;12.06;100.00;100611.69;1259480;23;20274;-76
2022/09/09 02:30:54;;;;;;;4.30;3.88;;;;;;;12.03;100.00;100620.13;1247027;23;20273;-76
2022/09/09 02:31:35;;;;;;;7.15;3.65;;;;;;;12.00;100.00;100615.28;1253211;23;20271;-75
2022/09/09 02:32:15;;;;;;;7.38;4.45;;;;;;;12.02;100.00;100612.38;1253669;23;20271;-76
2022/09/09 02:32:49;;;;;;;8.45;3.55;;;;;;;11.99;100.00;100602.97;1260766;23;20357;-76
2022/09/09 02:33:28;;;;;;;5.50;3.75;;;;;;;11.98;100.00;100608.53;1253010;23;20271;-76
2022/09/09 02:34:01;;;;;;;8.55;3.78;;;;;;;12.01;100.00;100610.75;1242685;23;20347;-75
2022/09/09 02:34:36;;;;;;;4.78;4.07;;;;;;;12.00;100.00;100612.59;1244515;23;20268;-76
2022/09/09 02:35:18;;;;;;;7.88;3.53;;;;;;;12.03;100.00;100609.47;1251859;23;20265;-76
2022/09/09 02:35:51;;;;;;;4.00;3.60;;;;;;;12.03;100.00;100612.13;1262971;23;20603;-76
2022/09/09 02:36:28;;;;;;;3.67;3.35;;;;;;;11.95;100.00;100607.16;1261415;23;20258;-76
2022/09/09 02:37:01;;;;;;;5.32;3.88;;;;;;;11.93;100.00;100606.56;1253527;23;20275;-76
2022/09/09 02:37:36;;;;;;;7.18;4.15;;;;;;;11.93;100.00;100603.09;1255351;23;20837;-76
2022/09/09 02:38:11;;;;;;;5.38;3.67;;;;;;;11.92;100.00;100610.28;1247428;23;20279;-76
2022/09/09 02:38:52;;;;;;;5.35;4.18;;;;;;;11.90;100.00;100604.34;1249919;23;20297;-76
2022/09/09 02:39:27;;;;;;;4.20;3.80;;;;;;;11.91;100.00;100600.66;1253543;23;20346;-76
2022/09/09 02:39:59;;;;;;;4.20;3.80;;;;;;;11.91;100.00;100607.84;1258816;23;20259;-76
2022/09/09 02:40:31;;;;;;;3.75;3.45;;;;;;;11.91;100.00;100595.31;1250097;23;20550;-76
2022/09/09 02:41:06;;;;;;;4.47;3.65;;;;;;;11.92;100.00;100596.94;1249145;23;20271;-76
2022/09/09 02:41:41;;;;;;;4.60;3.72;;;;;;;11.95;100.00;100603.66;1247534;23;20614;-76
2022/09/09 02:42:14;;;;;;;4.65;4.13;;;;;;;11.91;100.00;100600.66;1248987;23;20279;-76
2022/09/09 02:42:48;;;;;;;6.00;4.07;;;;;;;11.95;100.00;100601.81;1249108;23;20323;-76
2022/09/09 02:43:23;;;;;;;12.35;4.38;;;;;;;11.97;100.00;100605.06;1251189;23;20338;-76
2022/09/09 02:43:54;;;;;;;5.32;3.95;;;;;;;11.98;100.00;100606.69;1254618;23;20616;-76
2022/09/09 02:44:28;;;;;;;3.90;3.45;;;;;;;11.99;100.00;100604.81;1248921;23;20272;-76
2022/09/09 02:45:01;;;;;;;5.63;4.05;;;;;;;11.96;100.00;100608.78;1247011;23;20278;-76
2022/09/09 02:45:42;;;;;;;5.85;3.47;;;;;;;11.94;100.00;100600.19;1241426;23;20591;-75
2022/09/09 02:46:28;;;;;;;4.28;3.45;;;;;;;11.97;100.00;100599.72;1258675;23;20831;-75
2022/09/09 02:47:25;;;;;;;4.07;3.78;;;;;;;11.98;100.00;100603.19;1261097;23;20262;-76
2022/09/09 02:48:18;;;;;;;7.32;3.95;;;;;;;12.01;100.00;100600.88;1257566;23;20266;-76
2022/09/09 02:49:01;;;;;;;8.15;4.13;;;;;;;12.10;100.00;100605.88;1253154;23;20427;-76
2022/09/09 02:50:11;;;;;;;6.90;4.32;;;;;;;12.11;100.00;100602.19;1255108;23;20361;-76
2022/09/09 02:50:50;;;;;;;7.88;4.13;;;;;;;12.04;100.00;100605.75;1257910;23;20341;-76
2022/09/09 02:52:00;;;;;;;4.03;3.72;;;;;;;12.04;100.00;100605.75;1260640;23;20277;-76
2022/09/09 02:53:10;;;;;;;4.18;3.67;;;;;;;12.06;100.00;100611.69;1256502;23;20773;-76
2022/09/09 02:54:08;;;;;;;5.47;3.90;;;;;;;12.02;100.00;100607.84;1241229;23;20295;-76
2022/09/09 02:54:43;;;;;;;3.63;3.28;;;;;;;11.95;100.00;100609.00;1246938;23;20276;-75
2022/09/09 02:55:37;;;;;;;3.90;3.53;;;;;;;11.96;100.00;100602.63;1247525;23;20271;-76
2022/09/09 02:56:15;;;;;;;7.18;4.10;;;;;;;11.99;100.00;100602.97;1253628;23;20346;-76
2022/09/09 02:56:54;;;;;;;6.97;4.03;;;;;;;12.01;100.00;100606.22;1253357;23;20274;-75
2022/09/09 02:57:32;;;;;;;5.80;4.00;;;;;;;11.95;100.00;100607.16;1247214;23;20892;-76
2022/09/09 02:58:06;;;;;;;5.40;3.88;;;;;;;11.97;100.00;100615.72;1240979;23;20279;-75
2022/09/09 02:58:39;;;;;;;5.78;4.45;;;;;;;11.94;100.00;100608.19;1253495;23;20286;-75
2022/09/09 02:59:11;;;;;;;4.57;4.18;;;;;;;11.95;100.00;100607.16;1254691;23;20278;-76
2022/09/09 02:59:44;;;;;;;7.05;3.50;;;;;;;11.95;100.00;100611.66;1253142;23;20358;-76
2022/09/09 03:00:15;;;;;;;4.35;3.95;;;;;;;11.92;100.00;100612.13;1248203;23;20717;-76
2022/09/09 03:00:50;;;;;;;5.25;4.28;;;;;;;11.91;100.00;100611.31;1250397;23;20263;-75
2022/09/09 03:01:23;;;;;;;7.25;4.05;;;;;;;11.90;100.00;100615.03;1249231;23;20287;-76
2022/09/09 03:01:55;;;;;;;5.90;4.55;;;;;;;11.90;100.00;100612.38;1254329;23;20345;-75
2022/09/09 03:02:27;;;;;;;6.97;3.58;;;;;;;11.95;100.00;100609.81;1251466;23;20284;-76
2022/09/09 03:03:06;;;;;;;6.85;3.50;;;;;;;11.90;100.00;100612.38;1247039;23;20271;-76
2022/09/09 03:03:39;;;;;;;6.95;4.20;;;;;;;11.89;100.00;100616.06;1251942;23;20267;-76
2022/09/09 03:04:14;;;;;;;4.55;3.35;;;;;;;11.87;100.00;100615.50;1256269;23;20311;-76
2022/09/09 03:04:50;;;;;;;3.97;3.58;;;;;;;11.89;100.00;100618.75;1261061;23;20833;-75
2022/09/09 03:05:23;;;;;;;8.57;4.03;;;;;;;11.85;100.00;100617.59;1259241;23;20337;-76
2022/09/09 03:05:55;;;;;;;4.93;3.70;;;;;;;11.83;100.00;100608.19;1255273;23;20259;-75
2022/09/09 03:06:28;;;;;;;5.68;4.57;;;;;;;11.79;100.00;100607.84;1241701;23;20610;-75
2022/09/09 03:07:09;;;;;;;5.28;4.05;;;;;;;11.78;100.00;100611.56;1238203;23;20277;-76
2022/09/09 03:07:41;;;;;;;5.28;3.97;;;;;;;11.82;100.00;100607.38;1244710;23;20421;-76
2022/09/09 03:08:13;;;;;;;4.38;3.30;;;;;;;11.81;100.00;100615.63;1253180;23;20802;-76
2022/09/09 03:08:46;;;;;;;4.45;4.05;;;;;;;11.84;100.00;100621.31;1252922;23;20275;-75